sensor_id;sensor_type;location;lat;lon;timestamp;P1;durP1;ratioP1;P2;durP2;ratioP2
17739;SDS011;8990;33.226;-97.150;2022-08-19T00:02:05;0.40;;;0.40;;
17739;SDS011;8990;33.226;-97.150;2022-08-19T00:04:35;0.77;;;0.77;;
17739;SDS011;8990;33.226;-97.150;2022-08-19T00:07:13;0.17;;;0.17;;
17739;SDS011;8990;33.226;-97.150;2022-08-19T00:09:45;0.47;;;0.47;;
17739;SDS011;8990;33.226;-97.150;2022-08-19T00:12:15;0.15;;;0.15;;
17739;SDS011;8990;33.226;-97.150;2022-08-19T00:14:44;0.15;;;0.15;;
17739;SDS011;8990;33.226;-97.150;2022-08-19T00:17:14;0.20;;;0.20;;
17739;SDS011;8990;33.226;-97.150;2022-08-19T00:19:43;0.30;;;0.30;;
17739;SDS011;8990;33.226;-97.150;2022-08-19T00:22:12;0.65;;;0.60;;
17739;SDS011;8990;33.226;-97.150;2022-08-19T00:24:46;1.15;;;0.40;;
17739;SDS011;8990;33.226;-97.150;2022-08-19T00:27:15;0.93;;;0.30;;
17739;SDS011;8990;33.226;-97.150;2022-08-19T00:29:45;0.00;;;0.00;;
17739;SDS011;8990;33.226;-97.150;2022-08-19T00:32:14;0.20;;;0.20;;
17739;SDS011;8990;33.226;-97.150;2022-08-19T00:34:44;0.30;;;0.30;;
17739;SDS011;8990;33.226;-97.150;2022-08-19T00:37:13;0.08;;;0.08;;
17739;SDS011;8990;33.226;-97.150;2022-08-19T00:39:43;0.50;;;0.50;;
17739;SDS011;8990;33.226;-97.150;2022-08-19T00:42:13;0.25;;;0.25;;
17739;SDS011;8990;33.226;-97.150;2022-08-19T00:44:43;0.32;;;0.32;;
17739;SDS011;8990;33.226;-97.150;2022-08-19T00:47:12;0.10;;;0.10;;
17739;SDS011;8990;33.226;-97.150;2022-08-19T00:49:43;0.10;;;0.10;;
17739;SDS011;8990;33.226;-97.150;2022-08-19T00:52:19;0.20;;;0.20;;
17739;SDS011;8990;33.226;-97.150;2022-08-19T00:54:51;0.20;;;0.13;;
17739;SDS011;8990;33.226;-97.150;2022-08-19T00:57:24;0.40;;;0.40;;
17739;SDS011;8990;33.226;-97.150;2022-08-19T00:59:58;0.00;;;0.00;;
17739;SDS011;8990;33.226;-97.150;2022-08-19T01:02:30;0.20;;;0.20;;
17739;SDS011;8990;33.226;-97.150;2022-08-19T01:05:02;1.38;;;0.30;;
17739;SDS011;8990;33.226;-97.150;2022-08-19T01:07:35;0.52;;;0.52;;
17739;SDS011;8990;33.226;-97.150;2022-08-19T01:10:06;1.17;;;0.28;;
17739;SDS011;8990;33.226;-97.150;2022-08-19T01:12:39;0.50;;;0.50;;
17739;SDS011;8990;33.226;-97.150;2022-08-19T01:15:10;0.40;;;0.40;;
17739;SDS011;8990;33.226;-97.150;2022-08-19T01:17:42;1.55;;;0.52;;
17739;SDS011;8990;33.226;-97.150;2022-08-19T01:20:14;0.10;;;0.10;;
17739;SDS011;8990;33.226;-97.150;2022-08-19T01:22:50;0.40;;;0.40;;
17739;SDS011;8990;33.226;-97.150;2022-08-19T01:25:21;0.35;;;0.35;;
17739;SDS011;8990;33.226;-97.150;2022-08-19T01:27:55;0.30;;;0.30;;
17739;SDS011;8990;33.226;-97.150;2022-08-19T01:30:32;0.55;;;0.22;;
17739;SDS011;8990;33.226;-97.150;2022-08-19T01:33:03;0.47;;;0.47;;
17739;SDS011;8990;33.226;-97.150;2022-08-19T01:35:35;0.30;;;0.30;;
17739;SDS011;8990;33.226;-97.150;2022-08-19T01:38:07;0.55;;;0.45;;
17739;SDS011;8990;33.226;-97.150;2022-08-19T01:40:45;0.28;;;0.28;;
17739;SDS011;8990;33.226;-97.150;2022-08-19T01:43:15;0.50;;;0.50;;
17739;SDS011;8990;33.226;-97.150;2022-08-19T01:45:45;0.43;;;0.43;;
17739;SDS011;8990;33.226;-97.150;2022-08-19T01:48:14;0.43;;;0.43;;
17739;SDS011;8990;33.226;-97.150;2022-08-19T01:50:43;0.10;;;0.10;;
17739;SDS011;8990;33.226;-97.150;2022-08-19T01:53:18;0.88;;;0.40;;
17739;SDS011;8990;33.226;-97.150;2022-08-19T01:55:47;0.15;;;0.15;;
17739;SDS011;8990;33.226;-97.150;2022-08-19T01:58:22;0.10;;;0.10;;
17739;SDS011;8990;33.226;-97.150;2022-08-19T02:00:56;0.35;;;0.35;;
17739;SDS011;8990;33.226;-97.150;2022-08-19T02:03:26;1.17;;;0.57;;
17739;SDS011;8990;33.226;-97.150;2022-08-19T02:05:55;0.30;;;0.30;;
17739;SDS011;8990;33.226;-97.150;2022-08-19T02:08:28;0.40;;;0.40;;
17739;SDS011;8990;33.226;-97.150;2022-08-19T02:10:57;0.63;;;0.63;;
17739;SDS011;8990;33.226;-97.150;2022-08-19T02:13:28;0.45;;;0.45;;
17739;SDS011;8990;33.226;-97.150;2022-08-19T02:15:57;0.70;;;0.63;;
17739;SDS011;8990;33.226;-97.150;2022-08-19T02:18:27;0.28;;;0.28;;
17739;SDS011;8990;33.226;-97.150;2022-08-19T02:20:57;0.38;;;0.38;;
17739;SDS011;8990;33.226;-97.150;2022-08-19T02:23:28;0.35;;;0.35;;
17739;SDS011;8990;33.226;-97.150;2022-08-19T02:25:59;0.50;;;0.45;;
17739;SDS011;8990;33.226;-97.150;2022-08-19T02:28:29;0.22;;;0.22;;
17739;SDS011;8990;33.226;-97.150;2022-08-19T02:30:58;0.28;;;0.28;;
17739;SDS011;8990;33.226;-97.150;2022-08-19T02:33:28;0.43;;;0.43;;
17739;SDS011;8990;33.226;-97.150;2022-08-19T02:35:58;0.43;;;0.43;;
17739;SDS011;8990;33.226;-97.150;2022-08-19T02:38:28;0.40;;;0.40;;
17739;SDS011;8990;33.226;-97.150;2022-08-19T02:40:57;1.55;;;0.85;;
17739;SDS011;8990;33.226;-97.150;2022-08-19T02:43:28;0.50;;;0.50;;
17739;SDS011;8990;33.226;-97.150;2022-08-19T02:45:58;0.77;;;0.73;;
17739;SDS011;8990;33.226;-97.150;2022-08-19T02:48:29;0.30;;;0.30;;
17739;SDS011;8990;33.226;-97.150;2022-08-19T02:50:59;0.45;;;0.45;;
17739;SDS011;8990;33.226;-97.150;2022-08-19T02:53:30;0.70;;;0.70;;
17739;SDS011;8990;33.226;-97.150;2022-08-19T02:55:59;0.38;;;0.38;;
17739;SDS011;8990;33.226;-97.150;2022-08-19T02:58:28;0.40;;;0.40;;
17739;SDS011;8990;33.226;-97.150;2022-08-19T03:00:57;0.22;;;0.17;;
17739;SDS011;8990;33.226;-97.150;2022-08-19T03:03:27;0.68;;;0.68;;
17739;SDS011;8990;33.226;-97.150;2022-08-19T03:06:07;0.38;;;0.38;;
17739;SDS011;8990;33.226;-97.150;2022-08-19T03:08:41;1.52;;;0.63;;
17739;SDS011;8990;33.226;-97.150;2022-08-19T03:11:14;0.45;;;0.45;;
17739;SDS011;8990;33.226;-97.150;2022-08-19T03:13:45;0.47;;;0.47;;
17739;SDS011;8990;33.226;-97.150;2022-08-19T03:16:17;0.50;;;0.50;;
17739;SDS011;8990;33.226;-97.150;2022-08-19T03:18:47;0.40;;;0.40;;
17739;SDS011;8990;33.226;-97.150;2022-08-19T03:21:17;0.68;;;0.52;;
17739;SDS011;8990;33.226;-97.150;2022-08-19T03:23:53;0.32;;;0.32;;
17739;SDS011;8990;33.226;-97.150;2022-08-19T03:26:23;0.35;;;0.30;;
17739;SDS011;8990;33.226;-97.150;2022-08-19T03:28:52;0.47;;;0.47;;
17739;SDS011;8990;33.226;-97.150;2022-08-19T03:31:23;1.13;;;1.02;;
17739;SDS011;8990;33.226;-97.150;2022-08-19T03:33:54;1.00;;;1.00;;
17739;SDS011;8990;33.226;-97.150;2022-08-19T03:36:24;0.52;;;0.52;;
17739;SDS011;8990;33.226;-97.150;2022-08-19T03:38:58;0.30;;;0.30;;
17739;SDS011;8990;33.226;-97.150;2022-08-19T03:41:30;0.22;;;0.22;;
17739;SDS011;8990;33.226;-97.150;2022-08-19T03:44:00;0.30;;;0.30;;
17739;SDS011;8990;33.226;-97.150;2022-08-19T03:46:29;0.40;;;0.40;;
17739;SDS011;8990;33.226;-97.150;2022-08-19T03:49:01;0.50;;;0.40;;
17739;SDS011;8990;33.226;-97.150;2022-08-19T03:51:34;0.90;;;0.90;;
17739;SDS011;8990;33.226;-97.150;2022-08-19T03:54:07;0.30;;;0.30;;
17739;SDS011;8990;33.226;-97.150;2022-08-19T03:56:40;0.57;;;0.57;;
17739;SDS011;8990;33.226;-97.150;2022-08-19T03:59:11;0.20;;;0.20;;
17739;SDS011;8990;33.226;-97.150;2022-08-19T04:01:44;0.70;;;0.70;;
17739;SDS011;8990;33.226;-97.150;2022-08-19T04:04:14;0.95;;;0.95;;
17739;SDS011;8990;33.226;-97.150;2022-08-19T04:06:43;0.25;;;0.25;;
17739;SDS011;8990;33.226;-97.150;2022-08-19T04:09:16;0.90;;;0.82;;
17739;SDS011;8990;33.226;-97.150;2022-08-19T04:11:47;0.32;;;0.32;;
17739;SDS011;8990;33.226;-97.150;2022-08-19T04:14:22;0.63;;;0.50;;
17739;SDS011;8990;33.226;-97.150;2022-08-19T04:16:54;0.25;;;0.25;;
17739;SDS011;8990;33.226;-97.150;2022-08-19T04:19:24;0.50;;;0.50;;
17739;SDS011;8990;33.226;-97.150;2022-08-19T04:21:54;0.50;;;0.50;;
17739;SDS011;8990;33.226;-97.150;2022-08-19T04:24:26;0.43;;;0.43;;
17739;SDS011;8990;33.226;-97.150;2022-08-19T04:26:55;0.75;;;0.52;;
17739;SDS011;8990;33.226;-97.150;2022-08-19T04:29:26;0.35;;;0.35;;
17739;SDS011;8990;33.226;-97.150;2022-08-19T04:31:56;0.40;;;0.40;;
17739;SDS011;8990;33.226;-97.150;2022-08-19T04:34:27;0.45;;;0.45;;
17739;SDS011;8990;33.226;-97.150;2022-08-19T04:36:57;0.52;;;0.50;;
17739;SDS011;8990;33.226;-97.150;2022-08-19T04:39:29;1.38;;;0.60;;
17739;SDS011;8990;33.226;-97.150;2022-08-19T04:42:16;0.77;;;0.77;;
17739;SDS011;8990;33.226;-97.150;2022-08-19T04:45:04;0.63;;;0.63;;
17739;SDS011;8990;33.226;-97.150;2022-08-19T04:47:35;0.55;;;0.55;;
17739;SDS011;8990;33.226;-97.150;2022-08-19T04:50:06;0.35;;;0.35;;
17739;SDS011;8990;33.226;-97.150;2022-08-19T04:52:37;0.40;;;0.40;;
17739;SDS011;8990;33.226;-97.150;2022-08-19T04:55:10;0.50;;;0.50;;
17739;SDS011;8990;33.226;-97.150;2022-08-19T04:57:40;0.47;;;0.32;;
17739;SDS011;8990;33.226;-97.150;2022-08-19T05:00:10;0.57;;;0.57;;
17739;SDS011;8990;33.226;-97.150;2022-08-19T05:02:39;1.10;;;0.50;;
17739;SDS011;8990;33.226;-97.150;2022-08-19T05:05:09;0.60;;;0.60;;
17739;SDS011;8990;33.226;-97.150;2022-08-19T05:07:38;0.63;;;0.63;;
17739;SDS011;8990;33.226;-97.150;2022-08-19T05:10:07;0.40;;;0.40;;
17739;SDS011;8990;33.226;-97.150;2022-08-19T05:12:39;0.85;;;0.70;;
17739;SDS011;8990;33.226;-97.150;2022-08-19T05:15:09;0.73;;;0.73;;
17739;SDS011;8990;33.226;-97.150;2022-08-19T05:17:39;1.25;;;0.55;;
17739;SDS011;8990;33.226;-97.150;2022-08-19T05:20:30;0.20;;;0.20;;
17739;SDS011;8990;33.226;-97.150;2022-08-19T05:23:17;1.08;;;0.88;;
17739;SDS011;8990;33.226;-97.150;2022-08-19T05:25:47;0.57;;;0.57;;
17739;SDS011;8990;33.226;-97.150;2022-08-19T05:28:17;0.47;;;0.47;;
17739;SDS011;8990;33.226;-97.150;2022-08-19T05:30:47;0.52;;;0.50;;
17739;SDS011;8990;33.226;-97.150;2022-08-19T05:33:17;0.55;;;0.55;;
17739;SDS011;8990;33.226;-97.150;2022-08-19T05:35:46;0.52;;;0.52;;
17739;SDS011;8990;33.226;-97.150;2022-08-19T05:38:16;0.20;;;0.20;;
17739;SDS011;8990;33.226;-97.150;2022-08-19T05:40:48;1.00;;;1.00;;
17739;SDS011;8990;33.226;-97.150;2022-08-19T05:43:17;0.40;;;0.40;;
17739;SDS011;8990;33.226;-97.150;2022-08-19T05:45:46;0.57;;;0.57;;
17739;SDS011;8990;33.226;-97.150;2022-08-19T05:48:16;0.52;;;0.52;;
17739;SDS011;8990;33.226;-97.150;2022-08-19T05:50:46;0.38;;;0.38;;
17739;SDS011;8990;33.226;-97.150;2022-08-19T05:53:17;0.50;;;0.47;;
17739;SDS011;8990;33.226;-97.150;2022-08-19T05:55:49;0.30;;;0.30;;
17739;SDS011;8990;33.226;-97.150;2022-08-19T05:58:18;0.30;;;0.30;;
17739;SDS011;8990;33.226;-97.150;2022-08-19T06:00:49;0.38;;;0.38;;
17739;SDS011;8990;33.226;-97.150;2022-08-19T06:03:19;0.65;;;0.65;;
17739;SDS011;8990;33.226;-97.150;2022-08-19T06:05:49;0.20;;;0.20;;
17739;SDS011;8990;33.226;-97.150;2022-08-19T06:08:20;0.55;;;0.55;;
17739;SDS011;8990;33.226;-97.150;2022-08-19T06:10:50;0.32;;;0.32;;
17739;SDS011;8990;33.226;-97.150;2022-08-19T06:13:20;0.80;;;0.43;;
17739;SDS011;8990;33.226;-97.150;2022-08-19T06:15:51;0.60;;;0.60;;
17739;SDS011;8990;33.226;-97.150;2022-08-19T06:18:21;0.75;;;0.75;;
17739;SDS011;8990;33.226;-97.150;2022-08-19T06:20:51;0.73;;;0.73;;
17739;SDS011;8990;33.226;-97.150;2022-08-19T06:23:20;0.57;;;0.45;;
17739;SDS011;8990;33.226;-97.150;2022-08-19T06:25:51;0.93;;;0.93;;
17739;SDS011;8990;33.226;-97.150;2022-08-19T06:28:21;0.98;;;0.98;;
17739;SDS011;8990;33.226;-97.150;2022-08-19T06:30:50;2.28;;;1.17;;
17739;SDS011;8990;33.226;-97.150;2022-08-19T06:33:20;1.70;;;0.60;;
17739;SDS011;8990;33.226;-97.150;2022-08-19T06:35:49;0.60;;;0.60;;
17739;SDS011;8990;33.226;-97.150;2022-08-19T06:38:19;1.40;;;1.25;;
17739;SDS011;8990;33.226;-97.150;2022-08-19T06:40:49;0.95;;;0.82;;
17739;SDS011;8990;33.226;-97.150;2022-08-19T06:43:28;0.90;;;0.90;;
17739;SDS011;8990;33.226;-97.150;2022-08-19T06:45:57;0.93;;;0.55;;
17739;SDS011;8990;33.226;-97.150;2022-08-19T06:48:27;1.75;;;0.52;;
17739;SDS011;8990;33.226;-97.150;2022-08-19T06:50:55;0.98;;;0.38;;
17739;SDS011;8990;33.226;-97.150;2022-08-19T06:53:26;0.40;;;0.40;;
17739;SDS011;8990;33.226;-97.150;2022-08-19T06:55:57;1.58;;;0.35;;
17739;SDS011;8990;33.226;-97.150;2022-08-19T06:58:28;1.38;;;0.70;;
17739;SDS011;8990;33.226;-97.150;2022-08-19T07:00:59;0.57;;;0.57;;
17739;SDS011;8990;33.226;-97.150;2022-08-19T07:03:31;1.33;;;1.10;;
17739;SDS011;8990;33.226;-97.150;2022-08-19T07:06:03;0.70;;;0.70;;
17739;SDS011;8990;33.226;-97.150;2022-08-19T07:08:34;1.05;;;0.88;;
17739;SDS011;8990;33.226;-97.150;2022-08-19T07:11:07;0.63;;;0.63;;
17739;SDS011;8990;33.226;-97.150;2022-08-19T07:13:37;1.02;;;1.02;;
17739;SDS011;8990;33.226;-97.150;2022-08-19T07:16:09;0.20;;;0.20;;
17739;SDS011;8990;33.226;-97.150;2022-08-19T07:18:47;0.88;;;0.88;;
17739;SDS011;8990;33.226;-97.150;2022-08-19T07:21:17;1.13;;;1.00;;
17739;SDS011;8990;33.226;-97.150;2022-08-19T07:23:50;0.50;;;0.50;;
17739;SDS011;8990;33.226;-97.150;2022-08-19T07:26:25;0.90;;;0.90;;
17739;SDS011;8990;33.226;-97.150;2022-08-19T07:28:56;0.82;;;0.82;;
17739;SDS011;8990;33.226;-97.150;2022-08-19T07:31:27;1.85;;;1.05;;
17739;SDS011;8990;33.226;-97.150;2022-08-19T07:33:56;1.38;;;0.90;;
17739;SDS011;8990;33.226;-97.150;2022-08-19T07:36:26;0.77;;;0.77;;
17739;SDS011;8990;33.226;-97.150;2022-08-19T07:38:58;0.95;;;0.95;;
17739;SDS011;8990;33.226;-97.150;2022-08-19T07:41:30;0.57;;;0.57;;
17739;SDS011;8990;33.226;-97.150;2022-08-19T07:44:00;1.05;;;1.02;;
17739;SDS011;8990;33.226;-97.150;2022-08-19T07:46:31;0.35;;;0.35;;
17739;SDS011;8990;33.226;-97.150;2022-08-19T07:49:01;0.30;;;0.30;;
17739;SDS011;8990;33.226;-97.150;2022-08-19T07:51:31;0.57;;;0.57;;
17739;SDS011;8990;33.226;-97.150;2022-08-19T07:54:01;0.90;;;0.90;;
17739;SDS011;8990;33.226;-97.150;2022-08-19T07:56:33;1.00;;;1.00;;
17739;SDS011;8990;33.226;-97.150;2022-08-19T07:59:02;1.25;;;1.08;;
17739;SDS011;8990;33.226;-97.150;2022-08-19T08:01:34;3.50;;;0.63;;
17739;SDS011;8990;33.226;-97.150;2022-08-19T08:04:03;0.47;;;0.47;;
17739;SDS011;8990;33.226;-97.150;2022-08-19T08:06:57;1.70;;;1.50;;
17739;SDS011;8990;33.226;-97.150;2022-08-19T08:09:44;1.35;;;1.08;;
17739;SDS011;8990;33.226;-97.150;2022-08-19T08:12:17;0.82;;;0.82;;
17739;SDS011;8990;33.226;-97.150;2022-08-19T08:14:49;0.47;;;0.47;;
17739;SDS011;8990;33.226;-97.150;2022-08-19T08:17:22;0.70;;;0.52;;
17739;SDS011;8990;33.226;-97.150;2022-08-19T08:19:52;0.50;;;0.50;;
17739;SDS011;8990;33.226;-97.150;2022-08-19T08:22:24;1.15;;;0.55;;
17739;SDS011;8990;33.226;-97.150;2022-08-19T08:25:11;0.20;;;0.20;;
17739;SDS011;8990;33.226;-97.150;2022-08-19T08:27:44;1.88;;;0.95;;
17739;SDS011;8990;33.226;-97.150;2022-08-19T08:30:16;0.73;;;0.60;;
17739;SDS011;8990;33.226;-97.150;2022-08-19T08:32:47;1.65;;;1.20;;
17739;SDS011;8990;33.226;-97.150;2022-08-19T08:35:19;0.40;;;0.40;;
17739;SDS011;8990;33.226;-97.150;2022-08-19T08:37:49;0.85;;;0.82;;
17739;SDS011;8990;33.226;-97.150;2022-08-19T08:40:22;0.85;;;0.85;;
17739;SDS011;8990;33.226;-97.150;2022-08-19T08:42:57;2.35;;;0.73;;
17739;SDS011;8990;33.226;-97.150;2022-08-19T08:45:33;1.00;;;1.00;;
17739;SDS011;8990;33.226;-97.150;2022-08-19T08:48:07;1.08;;;0.85;;
17739;SDS011;8990;33.226;-97.150;2022-08-19T08:50:44;0.73;;;0.73;;
17739;SDS011;8990;33.226;-97.150;2022-08-19T08:53:19;2.38;;;1.08;;
17739;SDS011;8990;33.226;-97.150;2022-08-19T08:55:50;1.08;;;0.90;;
17739;SDS011;8990;33.226;-97.150;2022-08-19T08:58:25;0.95;;;0.95;;
17739;SDS011;8990;33.226;-97.150;2022-08-19T09:00:56;1.77;;;1.00;;
17739;SDS011;8990;33.226;-97.150;2022-08-19T09:03:26;0.43;;;0.40;;
17739;SDS011;8990;33.226;-97.150;2022-08-19T09:05:58;1.25;;;1.15;;
17739;SDS011;8990;33.226;-97.150;2022-08-19T09:08:35;1.65;;;0.95;;
17739;SDS011;8990;33.226;-97.150;2022-08-19T09:11:14;0.70;;;0.70;;
17739;SDS011;8990;33.226;-97.150;2022-08-19T09:13:55;1.30;;;0.98;;
17739;SDS011;8990;33.226;-97.150;2022-08-19T09:16:35;0.40;;;0.40;;
17739;SDS011;8990;33.226;-97.150;2022-08-19T09:19:06;0.80;;;0.73;;
17739;SDS011;8990;33.226;-97.150;2022-08-19T09:21:38;0.82;;;0.82;;
17739;SDS011;8990;33.226;-97.150;2022-08-19T09:24:07;0.60;;;0.60;;
17739;SDS011;8990;33.226;-97.150;2022-08-19T09:26:36;1.10;;;1.10;;
17739;SDS011;8990;33.226;-97.150;2022-08-19T09:29:07;0.68;;;0.68;;
17739;SDS011;8990;33.226;-97.150;2022-08-19T09:31:36;1.33;;;1.15;;
17739;SDS011;8990;33.226;-97.150;2022-08-19T09:34:05;4.95;;;0.68;;
17739;SDS011;8990;33.226;-97.150;2022-08-19T09:36:35;0.43;;;0.43;;
17739;SDS011;8990;33.226;-97.150;2022-08-19T09:39:04;2.85;;;1.45;;
17739;SDS011;8990;33.226;-97.150;2022-08-19T09:41:35;0.40;;;0.40;;
17739;SDS011;8990;33.226;-97.150;2022-08-19T09:44:05;0.95;;;0.95;;
17739;SDS011;8990;33.226;-97.150;2022-08-19T09:46:38;0.77;;;0.77;;
17739;SDS011;8990;33.226;-97.150;2022-08-19T09:49:07;1.60;;;1.50;;
17739;SDS011;8990;33.226;-97.150;2022-08-19T09:51:36;0.70;;;0.70;;
17739;SDS011;8990;33.226;-97.150;2022-08-19T09:54:06;0.82;;;0.82;;
17739;SDS011;8990;33.226;-97.150;2022-08-19T09:56:35;2.50;;;1.25;;
17739;SDS011;8990;33.226;-97.150;2022-08-19T09:59:05;2.03;;;1.38;;
17739;SDS011;8990;33.226;-97.150;2022-08-19T10:01:36;1.20;;;1.20;;
17739;SDS011;8990;33.226;-97.150;2022-08-19T10:04:06;0.50;;;0.50;;
17739;SDS011;8990;33.226;-97.150;2022-08-19T10:06:37;1.40;;;1.30;;
17739;SDS011;8990;33.226;-97.150;2022-08-19T10:09:08;0.73;;;0.65;;
17739;SDS011;8990;33.226;-97.150;2022-08-19T10:11:39;0.55;;;0.55;;
17739;SDS011;8990;33.226;-97.150;2022-08-19T10:14:11;1.50;;;1.27;;
17739;SDS011;8990;33.226;-97.150;2022-08-19T10:16:40;0.95;;;0.95;;
17739;SDS011;8990;33.226;-97.150;2022-08-19T10:19:10;3.05;;;1.05;;
17739;SDS011;8990;33.226;-97.150;2022-08-19T10:21:38;0.55;;;0.55;;
17739;SDS011;8990;33.226;-97.150;2022-08-19T10:24:09;2.17;;;1.98;;
17739;SDS011;8990;33.226;-97.150;2022-08-19T10:26:38;0.55;;;0.55;;
17739;SDS011;8990;33.226;-97.150;2022-08-19T10:29:13;0.73;;;0.73;;
17739;SDS011;8990;33.226;-97.150;2022-08-19T10:31:43;0.43;;;0.43;;
17739;SDS011;8990;33.226;-97.150;2022-08-19T10:34:13;1.30;;;1.20;;
17739;SDS011;8990;33.226;-97.150;2022-08-19T10:36:43;1.67;;;1.42;;
17739;SDS011;8990;33.226;-97.150;2022-08-19T10:39:14;0.50;;;0.45;;
17739;SDS011;8990;33.226;-97.150;2022-08-19T10:41:43;1.25;;;1.20;;
17739;SDS011;8990;33.226;-97.150;2022-08-19T10:44:14;1.23;;;1.10;;
17739;SDS011;8990;33.226;-97.150;2022-08-19T10:46:44;0.50;;;0.50;;
17739;SDS011;8990;33.226;-97.150;2022-08-19T10:49:14;0.88;;;0.88;;
17739;SDS011;8990;33.226;-97.150;2022-08-19T10:51:45;0.60;;;0.60;;
17739;SDS011;8990;33.226;-97.150;2022-08-19T10:54:31;3.35;;;2.15;;
17739;SDS011;8990;33.226;-97.150;2022-08-19T10:57:24;2.35;;;1.55;;
17739;SDS011;8990;33.226;-97.150;2022-08-19T10:59:56;0.85;;;0.85;;
17739;SDS011;8990;33.226;-97.150;2022-08-19T11:02:26;10.18;;;1.40;;
17739;SDS011;8990;33.226;-97.150;2022-08-19T11:04:59;1.15;;;1.15;;
17739;SDS011;8990;33.226;-97.150;2022-08-19T11:07:29;1.02;;;1.02;;
17739;SDS011;8990;33.226;-97.150;2022-08-19T11:09:58;1.85;;;1.30;;
17739;SDS011;8990;33.226;-97.150;2022-08-19T11:12:29;3.63;;;1.85;;
17739;SDS011;8990;33.226;-97.150;2022-08-19T11:15:00;2.45;;;2.05;;
17739;SDS011;8990;33.226;-97.150;2022-08-19T11:17:29;1.48;;;1.33;;
17739;SDS011;8990;33.226;-97.150;2022-08-19T11:19:58;3.72;;;0.70;;
17739;SDS011;8990;33.226;-97.150;2022-08-19T11:22:30;1.02;;;0.93;;
17739;SDS011;8990;33.226;-97.150;2022-08-19T11:24:59;0.85;;;0.85;;
17739;SDS011;8990;33.226;-97.150;2022-08-19T11:27:29;0.90;;;0.90;;
17739;SDS011;8990;33.226;-97.150;2022-08-19T11:30:01;1.20;;;1.10;;
17739;SDS011;8990;33.226;-97.150;2022-08-19T11:32:31;0.88;;;0.88;;
17739;SDS011;8990;33.226;-97.150;2022-08-19T11:35:01;1.27;;;1.23;;
17739;SDS011;8990;33.226;-97.150;2022-08-19T11:37:31;1.42;;;1.17;;
17739;SDS011;8990;33.226;-97.150;2022-08-19T11:40:05;1.15;;;1.05;;
17739;SDS011;8990;33.226;-97.150;2022-08-19T11:42:34;1.63;;;1.55;;
17739;SDS011;8990;33.226;-97.150;2022-08-19T11:45:25;1.88;;;1.13;;
17739;SDS011;8990;33.226;-97.150;2022-08-19T11:47:55;1.05;;;1.05;;
17739;SDS011;8990;33.226;-97.150;2022-08-19T11:50:24;3.28;;;1.50;;
17739;SDS011;8990;33.226;-97.150;2022-08-19T11:52:55;0.57;;;0.57;;
17739;SDS011;8990;33.226;-97.150;2022-08-19T11:55:27;1.67;;;1.58;;
17739;SDS011;8990;33.226;-97.150;2022-08-19T11:57:56;2.42;;;1.85;;
17739;SDS011;8990;33.226;-97.150;2022-08-19T12:00:27;16.10;;;2.28;;
17739;SDS011;8990;33.226;-97.150;2022-08-19T12:02:56;2.60;;;1.50;;
17739;SDS011;8990;33.226;-97.150;2022-08-19T12:05:25;4.70;;;2.05;;
17739;SDS011;8990;33.226;-97.150;2022-08-19T12:07:55;3.40;;;2.33;;
17739;SDS011;8990;33.226;-97.150;2022-08-19T12:10:24;1.45;;;1.35;;
17739;SDS011;8990;33.226;-97.150;2022-08-19T12:12:53;6.03;;;1.15;;
17739;SDS011;8990;33.226;-97.150;2022-08-19T12:15:23;1.83;;;1.70;;
17739;SDS011;8990;33.226;-97.150;2022-08-19T12:17:56;1.77;;;1.58;;
17739;SDS011;8990;33.226;-97.150;2022-08-19T12:20:26;1.02;;;0.98;;
17739;SDS011;8990;33.226;-97.150;2022-08-19T12:22:55;4.65;;;2.90;;
17739;SDS011;8990;33.226;-97.150;2022-08-19T12:25:24;3.05;;;2.85;;
17739;SDS011;8990;33.226;-97.150;2022-08-19T12:27:53;2.72;;;2.53;;
17739;SDS011;8990;33.226;-97.150;2022-08-19T12:30:22;4.60;;;2.05;;
17739;SDS011;8990;33.226;-97.150;2022-08-19T12:32:51;2.58;;;2.15;;
17739;SDS011;8990;33.226;-97.150;2022-08-19T12:35:22;1.50;;;1.40;;
17739;SDS011;8990;33.226;-97.150;2022-08-19T12:37:52;3.72;;;1.75;;
17739;SDS011;8990;33.226;-97.150;2022-08-19T12:40:22;2.95;;;2.00;;
17739;SDS011;8990;33.226;-97.150;2022-08-19T12:42:51;2.33;;;2.13;;
17739;SDS011;8990;33.226;-97.150;2022-08-19T12:45:20;2.58;;;2.30;;
17739;SDS011;8990;33.226;-97.150;2022-08-19T12:47:51;2.65;;;1.92;;
17739;SDS011;8990;33.226;-97.150;2022-08-19T12:50:22;5.28;;;2.17;;
17739;SDS011;8990;33.226;-97.150;2022-08-19T12:52:52;2.50;;;2.15;;
17739;SDS011;8990;33.226;-97.150;2022-08-19T12:55:21;2.72;;;1.63;;
17739;SDS011;8990;33.226;-97.150;2022-08-19T12:57:50;2.03;;;1.65;;
17739;SDS011;8990;33.226;-97.150;2022-08-19T13:00:21;2.92;;;1.45;;
17739;SDS011;8990;33.226;-97.150;2022-08-19T13:02:51;4.95;;;2.33;;
17739;SDS011;8990;33.226;-97.150;2022-08-19T13:05:23;2.78;;;1.70;;
17739;SDS011;8990;33.226;-97.150;2022-08-19T13:07:54;2.75;;;2.55;;
17739;SDS011;8990;33.226;-97.150;2022-08-19T13:10:27;2.38;;;1.80;;
17739;SDS011;8990;33.226;-97.150;2022-08-19T13:13:00;4.20;;;3.25;;
17739;SDS011;8990;33.226;-97.150;2022-08-19T13:15:32;1.48;;;1.48;;
17739;SDS011;8990;33.226;-97.150;2022-08-19T13:18:03;2.97;;;2.70;;
17739;SDS011;8990;33.226;-97.150;2022-08-19T13:20:35;2.10;;;1.90;;
17739;SDS011;8990;33.226;-97.150;2022-08-19T13:23:06;6.72;;;3.05;;
17739;SDS011;8990;33.226;-97.150;2022-08-19T13:25:35;2.90;;;2.63;;
17739;SDS011;8990;33.226;-97.150;2022-08-19T13:28:05;2.45;;;2.25;;
17739;SDS011;8990;33.226;-97.150;2022-08-19T13:30:35;1.88;;;1.77;;
17739;SDS011;8990;33.226;-97.150;2022-08-19T13:33:21;2.47;;;1.95;;
17739;SDS011;8990;33.226;-97.150;2022-08-19T13:35:58;2.70;;;2.40;;
17739;SDS011;8990;33.226;-97.150;2022-08-19T13:38:28;2.22;;;2.10;;
17739;SDS011;8990;33.226;-97.150;2022-08-19T13:40:57;4.65;;;2.25;;
17739;SDS011;8990;33.226;-97.150;2022-08-19T13:43:34;5.90;;;2.10;;
17739;SDS011;8990;33.226;-97.150;2022-08-19T13:46:07;4.00;;;2.35;;
17739;SDS011;8990;33.226;-97.150;2022-08-19T13:48:39;1.00;;;1.00;;
17739;SDS011;8990;33.226;-97.150;2022-08-19T13:51:10;1.80;;;1.70;;
17739;SDS011;8990;33.226;-97.150;2022-08-19T13:53:39;2.90;;;2.70;;
17739;SDS011;8990;33.226;-97.150;2022-08-19T13:56:09;2.42;;;2.22;;
17739;SDS011;8990;33.226;-97.150;2022-08-19T13:58:40;1.77;;;1.60;;
17739;SDS011;8990;33.226;-97.150;2022-08-19T14:01:09;3.25;;;2.88;;
17739;SDS011;8990;33.226;-97.150;2022-08-19T14:03:38;1.50;;;1.45;;
17739;SDS011;8990;33.226;-97.150;2022-08-19T14:06:08;2.78;;;2.35;;
17739;SDS011;8990;33.226;-97.150;2022-08-19T14:08:39;2.30;;;2.05;;
17739;SDS011;8990;33.226;-97.150;2022-08-19T14:11:08;2.22;;;1.45;;
17739;SDS011;8990;33.226;-97.150;2022-08-19T14:13:38;2.60;;;1.63;;
17739;SDS011;8990;33.226;-97.150;2022-08-19T14:16:08;3.22;;;1.70;;
17739;SDS011;8990;33.226;-97.150;2022-08-19T14:18:37;2.47;;;2.28;;
17739;SDS011;8990;33.226;-97.150;2022-08-19T14:21:08;2.22;;;2.05;;
17739;SDS011;8990;33.226;-97.150;2022-08-19T14:23:45;4.22;;;1.45;;
17739;SDS011;8990;33.226;-97.150;2022-08-19T14:26:15;3.22;;;2.22;;
17739;SDS011;8990;33.226;-97.150;2022-08-19T14:28:46;2.10;;;1.90;;
17739;SDS011;8990;33.226;-97.150;2022-08-19T14:31:18;1.80;;;1.70;;
17739;SDS011;8990;33.226;-97.150;2022-08-19T14:33:49;2.55;;;1.40;;
17739;SDS011;8990;33.226;-97.150;2022-08-19T14:36:21;1.25;;;1.25;;
17739;SDS011;8990;33.226;-97.150;2022-08-19T14:38:50;1.02;;;1.02;;
17739;SDS011;8990;33.226;-97.150;2022-08-19T14:41:21;2.30;;;1.70;;
17739;SDS011;8990;33.226;-97.150;2022-08-19T14:43:52;1.80;;;1.70;;
17739;SDS011;8990;33.226;-97.150;2022-08-19T14:46:23;3.38;;;2.00;;
17739;SDS011;8990;33.226;-97.150;2022-08-19T14:48:54;14.65;;;2.42;;
17739;SDS011;8990;33.226;-97.150;2022-08-19T14:51:26;1.00;;;1.00;;
17739;SDS011;8990;33.226;-97.150;2022-08-19T14:53:55;2.30;;;2.13;;
17739;SDS011;8990;33.226;-97.150;2022-08-19T14:56:25;1.45;;;1.40;;
17739;SDS011;8990;33.226;-97.150;2022-08-19T14:58:56;2.47;;;1.30;;